Time;durP1;ratioP1;P1;durP2;ratioP2;P2;SDS_P1;SDS_P2;PMS_P1;PMS_P2;Temp;Humidity;BMP_temperature;BMP_pressure;BME280_temperature;BME280_humidity;BME280_pressure;Samples;Min_cycle;Max_cycle;Signal;HPM_P1;HPM_P2
2022/10/27 00:01:17;;;;;;;0.10;0.10;;;11.70;99.90;10.70;97985.00;;;;5023445;28;20222;-75
2022/10/27 00:03:50;;;;;;;0.10;0.10;;;11.70;99.90;10.70;98021.00;;;;5038808;28;20249;-72
2022/10/27 00:06:19;;;;;;;0.10;0.10;;;11.80;99.90;10.60;97991.00;;;;5023496;28;20222;-72
2022/10/27 00:08:50;;;;;;;0.00;0.00;;;11.70;99.90;10.50;97988.00;;;;5019240;28;20205;-73
2022/10/27 00:11:18;;;;;;;0.10;0.10;;;11.50;99.90;10.40;97991.00;;;;5038913;28;20230;-72
2022/10/27 00:13:46;;;;;;;0.10;0.10;;;11.50;99.90;10.50;98018.00;;;;5021739;28;20206;-72
2022/10/27 00:16:16;;;;;;;0.10;0.10;;;11.50;99.90;10.60;98032.00;;;;5040510;28;20236;-72
2022/10/27 00:18:45;;;;;;;0.00;0.00;;;11.60;99.90;10.50;98018.00;;;;5041196;28;20214;-75
2022/10/27 00:21:16;;;;;;;0.10;0.10;;;11.50;99.90;10.50;98024.00;;;;5039352;28;20264;-72
2022/10/27 00:23:49;;;;;;;0.10;0.10;;;11.50;99.90;10.50;98015.00;;;;5038482;28;20202;-73
2022/10/27 00:26:20;;;;;;;0.10;0.10;;;11.50;99.90;10.50;98036.00;;;;5038514;28;20214;-72
2022/10/27 00:28:48;;;;;;;0.00;0.00;;;11.50;99.90;10.20;98028.00;;;;5040875;28;20194;-71
2022/10/27 00:31:20;;;;;;;0.10;0.10;;;11.20;99.90;10.10;98024.00;;;;5038202;28;20218;-71
2022/10/27 00:33:50;;;;;;;0.08;0.08;;;11.20;99.90;10.10;98001.00;;;;5038346;28;20197;-71
2022/10/27 00:36:21;;;;;;;0.10;0.10;;;11.30;99.90;10.10;98030.00;;;;5037436;28;20209;-72
2022/10/27 00:38:54;;;;;;;0.10;0.10;;;11.20;99.90;10.10;97975.00;;;;5040360;28;20201;-72
2022/10/27 00:41:29;;;;;;;0.10;0.10;;;11.10;99.90;10.10;98028.00;;;;5023082;28;20811;-71
2022/10/27 00:44:00;;;;;;;0.10;0.10;;;11.10;99.90;10.00;98031.00;;;;5041455;28;20194;-72
2022/10/27 00:46:37;;;;;;;0.10;0.10;;;11.20;99.90;10.00;98037.00;;;;5041105;28;20358;-74
2022/10/27 00:49:10;;;;;;;0.10;0.10;;;11.10;99.90;10.00;98036.00;;;;5040451;28;20210;-71
2022/10/27 00:51:42;;;;;;;0.10;0.10;;;11.10;99.90;9.60;98035.00;;;;5037431;28;20210;-71
2022/10/27 00:54:13;;;;;;;0.10;0.10;;;11.00;99.90;10.00;98039.00;;;;5038780;28;20304;-71
2022/10/27 00:56:44;;;;;;;0.10;0.10;;;11.10;99.90;9.90;98046.00;;;;5038374;28;20271;-73
2022/10/27 00:59:13;;;;;;;0.10;0.10;;;11.00;99.90;9.90;98043.00;;;;5038368;28;20551;-72
2022/10/27 01:01:42;;;;;;;0.10;0.10;;;11.10;99.90;9.80;98036.00;;;;5036280;28;20226;-72
2022/10/27 01:04:13;;;;;;;0.10;0.10;;;11.00;99.90;9.70;98022.00;;;;5039184;28;20666;-72
2022/10/27 01:06:41;;;;;;;0.00;0.00;;;10.90;99.90;9.60;98048.00;;;;5040195;28;20226;-72
2022/10/27 01:09:12;;;;;;;0.10;0.10;;;10.80;99.90;9.60;98002.00;;;;5021769;28;20547;-73
2022/10/27 01:11:40;;;;;;;0.10;0.10;;;10.70;99.90;9.60;98047.00;;;;5037113;28;21910;-72
2022/10/27 01:14:08;;;;;;;0.10;0.10;;;10.70;99.90;9.60;98042.00;;;;5037526;28;20194;-72
2022/10/27 01:16:48;;;;;;;0.00;0.00;;;10.70;99.90;9.70;98065.00;;;;5040205;28;20206;-72
2022/10/27 01:20:10;;;;;;;0.10;0.10;;;10.80;99.90;9.70;98056.00;;;;5037488;28;20202;-73
2022/10/27 01:22:50;;;;;;;0.10;0.10;;;10.80;99.90;9.60;98039.00;;;;4964572;28;20276;-73
2022/10/27 01:25:57;;;;;;;0.10;0.10;;;10.70;99.90;9.50;98055.00;;;;5038024;28;20289;-73
2022/10/27 01:28:59;;;;;;;0.03;0.03;;;10.70;99.90;9.50;98050.00;;;;5039551;28;20210;-72
2022/10/27 01:31:34;;;;;;;0.00;0.00;;;10.70;99.90;9.50;98069.00;;;;5043501;28;20668;-72
2022/10/27 01:34:13;;;;;;;0.10;0.10;;;10.70;99.90;9.40;98057.00;;;;5042286;28;20280;-72
2022/10/27 01:36:48;;;;;;;0.10;0.10;;;10.60;99.90;9.30;98064.00;;;;5043871;28;20263;-73
2022/10/27 01:39:25;;;;;;;0.10;0.10;;;10.50;99.90;9.30;98062.00;;;;5046738;28;20194;-72
2022/10/27 01:42:02;;;;;;;0.10;0.10;;;10.40;99.90;9.20;98063.00;;;;5045816;28;20202;-72
2022/10/27 01:44:35;;;;;;;0.00;0.00;;;10.30;99.90;9.20;98069.00;;;;5046292;28;20186;-72
2022/10/27 01:47:05;;;;;;;0.00;0.00;;;10.30;99.90;9.20;97993.00;;;;5042747;28;20226;-74
2022/10/27 01:49:37;;;;;;;0.10;0.10;;;10.30;99.90;9.30;98043.00;;;;5042100;28;20190;-72
2022/10/27 01:52:06;;;;;;;0.10;0.10;;;10.40;99.90;9.30;98063.00;;;;5040464;28;20203;-70
2022/10/27 01:54:37;;;;;;;0.10;0.10;;;10.40;99.90;9.30;98049.00;;;;5042467;28;20208;-72
2022/10/27 01:57:23;;;;;;;0.10;0.10;;;10.50;99.90;9.30;98077.00;;;;5042439;28;20216;-72
2022/10/27 02:00:02;;;;;;;0.10;0.10;;;10.50;99.90;9.10;98059.00;;;;5040675;28;20232;-71
2022/10/27 02:02:43;;;;;;;0.10;0.10;;;10.50;99.90;9.30;98071.00;;;;5040270;28;20275;-73
2022/10/27 02:05:24;;;;;;;0.10;0.10;;;10.60;99.90;9.20;98062.00;;;;5039623;28;20195;-72
2022/10/27 02:08:00;;;;;;;0.10;0.10;;;10.40;99.90;9.10;98060.00;;;;5024796;28;20236;-72
2022/10/27 02:10:35;;;;;;;0.00;0.00;;;10.30;99.90;9.10;98070.00;;;;5040022;28;20217;-72
2022/10/27 02:13:04;;;;;;;0.10;0.10;;;10.30;99.90;9.10;97982.00;;;;5023913;28;20205;-72
2022/10/27 02:15:38;;;;;;;0.10;0.10;;;10.30;99.90;9.00;98078.00;;;;5041998;28;20197;-73
2022/10/27 02:18:13;;;;;;;0.00;0.00;;;10.30;99.90;9.10;98064.00;;;;5023444;28;20206;-73
2022/10/27 02:20:46;;;;;;;0.10;0.10;;;10.30;99.90;9.00;98066.00;;;;5043051;28;21242;-72
2022/10/27 02:23:19;;;;;;;0.10;0.10;;;10.20;99.90;8.90;98023.00;;;;5021956;28;20210;-73
2022/10/27 02:25:56;;;;;;;0.00;0.00;;;10.10;99.90;8.90;98064.00;;;;5041174;28;20202;-72
2022/10/27 02:28:34;;;;;;;0.10;0.10;;;10.10;99.90;8.90;98085.00;;;;5039993;28;20214;-73
2022/10/27 02:31:03;;;;;;;0.10;0.10;;;10.10;99.90;9.00;98079.00;;;;5041051;28;20218;-73
2022/10/27 02:33:33;;;;;;;0.10;0.10;;;10.20;99.90;8.90;98079.00;;;;5025113;28;20210;-72
2022/10/27 02:36:01;;;;;;;0.10;0.10;;;10.30;99.90;9.00;98029.00;;;;5040417;28;20198;-72
2022/10/27 02:38:29;;;;;;;0.10;0.10;;;10.20;99.90;8.90;98084.00;;;;5040899;28;20273;-72
2022/10/27 02:40:57;;;;;;;0.05;0.05;;;10.10;99.90;8.80;98078.00;;;;5042069;28;20260;-72
2022/10/27 02:43:26;;;;;;;0.10;0.10;;;10.00;99.90;8.80;98070.00;;;;5039623;28;20217;-74
2022/10/27 02:45:54;;;;;;;0.10;0.10;;;9.90;99.90;8.90;98058.00;;;;5041572;28;20563;-74
2022/10/27 02:48:22;;;;;;;0.10;0.10;;;10.10;99.90;8.80;98067.00;;;;5023365;28;20222;-72
2022/10/27 02:50:51;;;;;;;0.10;0.10;;;10.00;99.90;8.70;98072.00;;;;5023211;28;20772;-72
2022/10/27 02:53:20;;;;;;;0.10;0.10;;;9.90;99.90;8.70;98084.00;;;;5039101;28;20837;-72
2022/10/27 02:55:48;;;;;;;0.10;0.10;;;9.90;99.90;8.40;98079.00;;;;5041584;28;20194;-73
2022/10/27 02:58:16;;;;;;;0.10;0.10;;;9.70;99.90;8.30;98002.00;;;;5038933;28;20273;-71
2022/10/27 03:00:45;;;;;;;0.10;0.10;;;9.50;99.90;8.40;98067.00;;;;5040347;28;20252;-72
2022/10/27 03:03:13;;;;;;;0.10;0.10;;;9.60;99.90;8.40;98066.00;;;;5041159;28;20230;-71
2022/10/27 03:05:41;;;;;;;0.10;0.10;;;9.60;99.90;8.50;98072.00;;;;5038346;28;20814;-72
2022/10/27 03:08:15;;;;;;;0.10;0.10;;;9.60;99.90;8.50;98080.00;;;;5039953;28;20782;-72
2022/10/27 03:10:43;;;;;;;0.10;0.10;;;9.60;99.90;8.60;98095.00;;;;5039404;28;20269;-72
2022/10/27 03:13:12;;;;;;;0.10;0.10;;;9.70;99.90;8.50;98025.00;;;;5040330;28;20649;-72
2022/10/27 03:15:40;;;;;;;0.10;0.10;;;9.70;99.90;8.50;98097.00;;;;5040457;28;20206;-74
2022/10/27 03:18:08;;;;;;;0.10;0.10;;;9.60;99.90;8.50;98090.00;;;;5038546;28;20663;-72
2022/10/27 03:20:36;;;;;;;0.10;0.10;;;9.60;99.90;8.50;98091.00;;;;5039002;28;20222;-73
2022/10/27 03:23:04;;;;;;;0.10;0.10;;;9.60;99.90;8.50;98100.00;;;;5040507;28;20194;-72
2022/10/27 03:25:35;;;;;;;0.10;0.10;;;9.60;99.90;8.50;98083.00;;;;5040316;28;20244;-72
2022/10/27 03:28:04;;;;;;;0.10;0.10;;;9.70;99.90;8.50;98086.00;;;;5038992;28;20295;-73
2022/10/27 03:30:32;;;;;;;0.10;0.10;;;9.60;99.90;8.50;98088.00;;;;5042313;28;20233;-72
2022/10/27 03:33:00;;;;;;;0.10;0.10;;;9.60;99.90;8.40;98090.00;;;;5041848;28;20677;-71
2022/10/27 03:35:28;;;;;;;0.10;0.10;;;9.60;99.90;8.40;98089.00;;;;5037745;28;20232;-72
2022/10/27 03:37:57;;;;;;;0.10;0.10;;;9.60;99.90;8.30;98071.00;;;;5040194;28;20206;-72
2022/10/27 03:40:27;;;;;;;0.10;0.10;;;9.50;99.90;8.30;98100.00;;;;5038706;28;20226;-72
2022/10/27 03:42:57;;;;;;;0.10;0.10;;;9.50;99.90;8.30;98086.00;;;;5041544;28;20545;-72
2022/10/27 03:45:27;;;;;;;0.08;0.08;;;9.50;99.90;8.40;98111.00;;;;5023534;28;20201;-73
2022/10/27 03:48:04;;;;;;;0.00;0.00;;;9.60;99.90;8.50;98087.00;;;;5039055;28;21489;-72
2022/10/27 03:50:33;;;;;;;0.10;0.10;;;9.70;99.90;8.30;98085.00;;;;5038770;28;20283;-72
2022/10/27 03:53:02;;;;;;;0.10;0.10;;;9.60;99.90;8.30;98098.00;;;;5042991;28;20658;-72
2022/10/27 03:55:31;;;;;;;0.10;0.10;;;9.50;99.90;8.00;98099.00;;;;5037688;28;20206;-72
2022/10/27 03:58:01;;;;;;;0.10;0.10;;;9.30;99.90;7.80;98085.00;;;;5038075;28;20327;-71
2022/10/27 04:00:30;;;;;;;0.10;0.10;;;9.00;99.90;7.90;98092.00;;;;5038403;28;20242;-71
2022/10/27 04:02:58;;;;;;;0.10;0.10;;;9.10;99.90;7.90;98088.00;;;;5039718;28;20234;-71
2022/10/27 04:05:26;;;;;;;0.10;0.10;;;9.00;99.90;7.80;98098.00;;;;5038656;28;20206;-71
2022/10/27 04:07:54;;;;;;;0.10;0.10;;;8.90;99.90;7.80;98097.00;;;;5037830;28;20218;-71
2022/10/27 04:10:22;;;;;;;0.10;0.10;;;9.00;99.90;7.80;98105.00;;;;5039269;28;20576;-73
2022/10/27 04:12:53;;;;;;;0.10;0.10;;;9.00;99.90;7.90;98097.00;;;;5041592;28;20620;-71
2022/10/27 04:15:25;;;;;;;0.10;0.10;;;9.10;99.90;8.00;98036.00;;;;5040242;28;20194;-72
2022/10/27 04:17:54;;;;;;;0.10;0.10;;;9.10;99.90;8.00;98106.00;;;;5042898;28;20272;-72
2022/10/27 04:20:23;;;;;;;0.10;0.10;;;9.10;99.90;8.00;98111.00;;;;5044024;28;20230;-72
2022/10/27 04:22:51;;;;;;;0.10;0.10;;;9.20;99.90;8.00;98116.00;;;;5041081;28;20213;-74
2022/10/27 04:25:19;;;;;;;0.10;0.10;;;9.20;99.90;8.00;98114.00;;;;5028473;28;21365;-73
2022/10/27 04:27:48;;;;;;;0.10;0.10;;;9.10;99.90;8.00;98120.00;;;;5024420;28;20205;-73
2022/10/27 04:30:19;;;;;;;0.10;0.10;;;9.10;99.90;8.00;98092.00;;;;5042591;28;20218;-73
2022/10/27 04:32:55;;;;;;;0.10;0.10;;;9.10;99.90;7.90;98119.00;;;;5042354;28;20198;-73
2022/10/27 04:35:23;;;;;;;0.10;0.10;;;9.00;99.90;7.90;98116.00;;;;5035562;28;20305;-74
2022/10/27 04:37:51;;;;;;;0.05;0.05;;;9.00;99.90;8.00;98109.00;;;;5040117;28;20654;-73
2022/10/27 04:40:20;;;;;;;0.10;0.10;;;9.10;99.90;8.00;98129.00;;;;5039388;28;20578;-73
2022/10/27 04:42:48;;;;;;;0.10;0.10;;;9.10;99.90;8.10;98142.00;;;;5019511;28;20202;-73
2022/10/27 04:45:17;;;;;;;0.10;0.10;;;9.20;99.90;8.10;98139.00;;;;5037463;28;20198;-73
2022/10/27 04:47:48;;;;;;;0.05;0.05;;;9.20;99.90;7.90;98129.00;;;;5039067;28;20231;-73
2022/10/27 04:50:18;;;;;;;0.10;0.10;;;9.10;99.90;7.90;98101.00;;;;5039044;28;20313;-71
2022/10/27 04:52:56;;;;;;;0.10;0.10;;;9.10;99.90;8.00;98150.00;;;;5038651;28;20653;-72
2022/10/27 04:55:25;;;;;;;0.10;0.10;;;9.10;99.90;7.80;98138.00;;;;5038442;28;20611;-72
2022/10/27 04:57:53;;;;;;;0.10;0.10;;;9.00;99.90;7.90;98195.00;;;;5040178;28;20203;-71
2022/10/27 05:00:22;;;;;;;0.10;0.10;;;9.00;99.90;7.80;98190.00;;;;5022677;28;20561;-72
2022/10/27 05:02:54;;;;;;;0.10;0.10;;;8.90;99.90;7.80;98198.00;;;;5034878;28;20280;-73
2022/10/27 05:05:27;;;;;;;0.10;0.10;;;8.90;99.90;7.80;98235.00;;;;5041751;28;20208;-73
2022/10/27 05:07:59;;;;;;;0.10;0.10;;;9.00;99.90;7.70;98189.00;;;;5039367;28;20573;-73
2022/10/27 05:10:29;;;;;;;0.10;0.10;;;9.00;99.90;7.80;98239.00;;;;5019926;28;20602;-73
2022/10/27 05:12:57;;;;;;;0.10;0.10;;;9.00;99.90;7.90;98239.00;;;;5036788;28;20616;-73
2022/10/27 05:15:26;;;;;;;0.10;0.10;;;9.10;99.90;7.90;98247.00;;;;5038908;28;20682;-71
2022/10/27 05:17:54;;;;;;;0.10;0.10;;;9.20;99.90;7.90;98211.00;;;;5038929;28;20244;-72
2022/10/27 05:20:24;;;;;;;0.10;0.10;;;9.20;99.90;7.80;98215.00;;;;5035812;28;20240;-71
2022/10/27 05:22:52;;;;;;;0.10;0.10;;;9.00;99.90;7.80;98229.00;;;;5021575;28;20693;-73
2022/10/27 05:25:21;;;;;;;0.10;0.10;;;9.00;99.90;7.80;98246.00;;;;5042530;28;20606;-73
2022/10/27 05:27:49;;;;;;;0.10;0.10;;;9.10;99.90;7.90;98217.00;;;;5040923;28;20240;-73
2022/10/27 05:30:18;;;;;;;0.10;0.10;;;9.10;99.90;7.90;98255.00;;;;5041647;28;20233;-74
2022/10/27 05:32:46;;;;;;;0.10;0.10;;;9.20;99.90;7.90;98240.00;;;;5043193;28;20206;-73
2022/10/27 05:35:15;;;;;;;0.10;0.10;;;9.20;99.90;7.80;98246.00;;;;5041815;28;20209;-74
2022/10/27 05:37:47;;;;;;;0.10;0.10;;;9.10;99.90;7.80;98238.00;;;;5042322;28;20636;-74
2022/10/27 05:40:16;;;;;;;0.10;0.10;;;8.90;99.90;7.70;98255.00;;;;5047604;28;20312;-74
2022/10/27 05:42:52;;;;;;;0.10;0.10;;;8.90;99.90;7.70;98249.00;;;;5053515;28;20215;-74
2022/10/27 05:45:24;;;;;;;0.10;0.10;;;8.80;99.90;7.60;98169.00;;;;5045925;28;20303;-74
2022/10/27 05:47:58;;;;;;;0.10;0.10;;;8.70;99.90;7.60;98167.00;;;;5050960;28;20202;-72
2022/10/27 05:50:27;;;;;;;0.10;0.10;;;8.80;99.90;7.70;98177.00;;;;5054639;28;20232;-74
2022/10/27 05:52:57;;;;;;;0.00;0.00;;;8.80;99.90;7.80;98168.00;;;;5054190;28;20202;-75
2022/10/27 05:55:26;;;;;;;0.10;0.10;;;8.90;99.90;7.90;98175.00;;;;5047106;28;20202;-74
2022/10/27 05:57:56;;;;;;;0.10;0.10;;;9.10;99.90;7.90;98176.00;;;;5035567;28;20214;-75
2022/10/27 06:00:29;;;;;;;0.10;0.10;;;9.10;99.90;7.90;98178.00;;;;5052607;28;20321;-74
2022/10/27 06:02:58;;;;;;;0.10;0.10;;;9.00;99.90;7.90;98180.00;;;;5053463;28;20281;-75
2022/10/27 06:05:27;;;;;;;0.10;0.10;;;9.00;99.90;7.90;98180.00;;;;5052402;28;20202;-74
2022/10/27 06:07:57;;;;;;;0.10;0.10;;;9.10;99.90;8.00;98187.00;;;;5039194;28;20195;-74
2022/10/27 06:10:28;;;;;;;0.10;0.10;;;9.10;99.90;8.00;98183.00;;;;5053219;28;20375;-75
2022/10/27 06:13:02;;;;;;;0.10;0.10;;;9.10;99.90;8.00;98186.00;;;;5054367;28;20743;-73
2022/10/27 06:15:30;;;;;;;0.10;0.10;;;9.10;99.90;8.00;98185.00;;;;5053289;28;20195;-72
2022/10/27 06:17:58;;;;;;;0.10;0.10;;;9.10;99.90;8.00;98179.00;;;;5053466;28;20204;-72
2022/10/27 06:20:27;;;;;;;0.10;0.10;;;9.10;99.90;8.00;98113.00;;;;5052486;28;20446;-72
2022/10/27 06:22:56;;;;;;;0.10;0.10;;;9.20;99.90;8.00;98181.00;;;;5054136;28;20198;-72
2022/10/27 06:25:25;;;;;;;0.10;0.10;;;9.20;99.90;8.00;98186.00;;;;5053833;28;20205;-72
2022/10/27 06:27:53;;;;;;;0.10;0.10;;;9.10;99.90;8.00;98194.00;;;;5050425;28;20202;-72
2022/10/27 06:30:22;;;;;;;0.10;0.10;;;9.10;99.90;8.00;98198.00;;;;5044303;28;20251;-74
2022/10/27 06:32:50;;;;;;;0.10;0.10;;;9.00;99.90;8.00;98198.00;;;;5050231;28;20190;-74
2022/10/27 06:35:19;;;;;;;0.10;0.10;;;9.00;99.90;8.10;98208.00;;;;5053435;28;20230;-72
2022/10/27 06:37:48;;;;;;;0.10;0.10;;;9.10;99.90;8.20;98216.00;;;;5052714;28;20202;-72
2022/10/27 06:40:20;;;;;;;0.08;0.08;;;9.20;99.90;8.30;98194.00;;;;5054281;28;20222;-75
2022/10/27 06:42:49;;;;;;;0.10;0.10;;;9.30;99.90;8.40;98181.00;;;;5054575;28;20256;-76
2022/10/27 06:45:36;;;;;;;0.10;0.10;;;9.40;99.90;8.50;98226.00;;;;5054020;28;20628;-75
2022/10/27 06:48:06;;;;;;;0.10;0.10;;;9.60;99.90;8.40;98225.00;;;;5053198;28;20198;-77
2022/10/27 06:50:35;;;;;;;0.10;0.10;;;9.60;99.90;8.60;98158.00;;;;5054330;28;20228;-75
2022/10/27 06:53:03;;;;;;;0.10;0.10;;;9.70;99.90;8.70;98242.00;;;;5053601;28;20210;-76
2022/10/27 06:55:33;;;;;;;0.10;0.10;;;9.70;99.90;8.70;98177.00;;;;5052768;28;20206;-76
2022/10/27 06:58:01;;;;;;;0.10;0.10;;;9.70;99.90;8.70;98233.00;;;;5051999;28;20198;-77
2022/10/27 07:00:30;;;;;;;0.10;0.10;;;9.70;99.90;8.70;98235.00;;;;5034629;28;20226;-77
2022/10/27 07:02:58;;;;;;;0.10;0.10;;;9.70;99.90;8.70;98227.00;;;;5055041;28;20619;-76
2022/10/27 07:05:26;;;;;;;0.10;0.10;;;9.70;99.90;8.70;98249.00;;;;5053530;28;20194;-75
2022/10/27 07:07:54;;;;;;;0.10;0.10;;;9.70;99.90;8.80;98250.00;;;;5050291;28;20202;-76
2022/10/27 07:10:23;;;;;;;0.10;0.10;;;9.80;99.90;8.80;98236.00;;;;5043335;28;20264;-76
2022/10/27 07:12:55;;;;;;;0.10;0.10;;;9.80;99.90;8.80;98245.00;;;;5053139;28;20631;-78
2022/10/27 07:15:24;;;;;;;0.10;0.10;;;9.80;99.90;8.80;98239.00;;;;5052098;28;20241;-77
2022/10/27 07:17:57;;;;;;;0.00;0.00;;;9.80;99.90;8.80;98244.00;;;;5050641;28;20404;-75
2022/10/27 07:20:28;;;;;;;0.10;0.10;;;9.80;99.90;8.90;98262.00;;;;5041799;28;20218;-77
2022/10/27 07:22:57;;;;;;;0.10;0.10;;;9.90;99.90;8.90;98259.00;;;;5051797;28;20202;-76
2022/10/27 07:25:25;;;;;;;0.10;0.10;;;9.90;99.90;9.00;98236.00;;;;5052874;28;20665;-76
2022/10/27 07:27:55;;;;;;;0.10;0.10;;;9.90;99.90;8.90;98242.00;;;;5051614;28;20194;-78
2022/10/27 07:30:27;;;;;;;0.10;0.10;;;9.90;99.90;9.00;98245.00;;;;5044171;28;20612;-76
2022/10/27 07:32:56;;;;;;;0.10;0.10;;;10.00;99.90;9.10;98241.00;;;;5051863;28;20252;-75
2022/10/27 07:35:25;;;;;;;0.10;0.10;;;10.10;99.90;9.20;98246.00;;;;5044963;28;20244;-76
2022/10/27 07:37:54;;;;;;;0.10;0.10;;;10.10;99.90;9.20;98240.00;;;;5052115;28;20221;-76
2022/10/27 07:40:24;;;;;;;0.10;0.10;;;10.20;99.90;9.30;98242.00;;;;5051847;28;20234;-76
2022/10/27 07:43:01;;;;;;;0.10;0.10;;;10.30;99.90;9.40;98251.00;;;;5053342;28;20190;-77
2022/10/27 07:45:37;;;;;;;0.10;0.10;;;10.40;99.90;9.50;98254.00;;;;5051322;28;20194;-76
2022/10/27 07:48:07;;;;;;;0.10;0.10;;;10.50;99.90;9.60;98248.00;;;;5051834;28;20195;-76
2022/10/27 07:50:35;;;;;;;0.10;0.10;;;10.50;99.90;9.70;98250.00;;;;5052212;28;20218;-75
2022/10/27 07:53:04;;;;;;;0.10;0.10;;;10.60;99.90;9.80;98266.00;;;;5052174;28;20209;-76
2022/10/27 07:55:35;;;;;;;0.00;0.00;;;10.70;99.90;9.90;98250.00;;;;5052224;28;20198;-76
2022/10/27 07:58:09;;;;;;;0.00;0.00;;;10.80;99.90;10.00;98250.00;;;;5034070;28;20205;-76
2022/10/27 08:00:40;;;;;;;0.10;0.10;;;10.90;99.90;10.10;98259.00;;;;5049532;28;20230;-76
2022/10/27 08:03:13;;;;;;;0.10;0.10;;;11.00;99.90;10.20;98255.00;;;;5052737;28;20680;-76
2022/10/27 08:05:41;;;;;;;0.10;0.10;;;11.10;99.90;10.20;98252.00;;;;5053212;28;20268;-76
2022/10/27 08:08:09;;;;;;;0.10;0.10;;;11.20;99.90;10.30;98265.00;;;;5053192;28;20191;-76
2022/10/27 08:10:40;;;;;;;0.00;0.00;;;11.20;99.90;10.30;98260.00;;;;5051751;28;20222;-76
2022/10/27 08:13:10;;;;;;;0.10;0.10;;;11.30;99.90;10.40;98274.00;;;;5035063;28;20565;-76
2022/10/27 08:15:41;;;;;;;0.10;0.10;;;11.30;99.90;10.60;98271.00;;;;5053255;28;20242;-76
2022/10/27 08:18:11;;;;;;;0.10;0.10;;;11.50;99.90;10.70;98261.00;;;;5051871;28;20191;-76
2022/10/27 08:20:42;;;;;;;0.10;0.10;;;11.60;99.90;10.80;98282.00;;;;5050553;28;20226;-75
2022/10/27 08:23:13;;;;;;;0.00;0.00;;;11.70;99.90;10.90;98258.00;;;;5050799;28;20206;-77
2022/10/27 08:25:42;;;;;;;0.10;0.10;;;11.80;99.90;11.00;98207.00;;;;5050676;28;20564;-76
2022/10/27 08:28:13;;;;;;;0.03;0.03;;;11.90;99.90;11.10;98264.00;;;;5054724;28;20264;-77
2022/10/27 08:30:42;;;;;;;0.10;0.10;;;12.00;99.90;11.10;98236.00;;;;5048045;28;20609;-76
2022/10/27 08:33:19;;;;;;;0.10;0.10;;;12.10;99.90;11.30;98287.00;;;;5045754;28;20190;-76
2022/10/27 08:35:50;;;;;;;0.10;0.10;;;12.20;99.90;11.40;98331.00;;;;5040749;28;20200;-77
2022/10/27 08:38:19;;;;;;;0.10;0.10;;;12.20;99.90;11.40;98275.00;;;;5054285;28;20229;-77
2022/10/27 08:41:23;;;;;;;0.03;0.03;;;12.30;99.90;11.50;98279.00;;;;5051394;28;20237;-76
2022/10/27 08:44:18;;;;;;;0.10;0.10;;;12.40;99.90;11.50;98290.00;;;;5047200;28;20194;-75
2022/10/27 08:46:51;;;;;;;0.00;0.00;;;12.40;99.90;11.60;98287.00;;;;5052189;28;20282;-78
2022/10/27 08:49:40;;;;;;;0.00;0.00;;;12.50;99.90;11.70;98292.00;;;;5051740;28;20190;-76
2022/10/27 08:52:25;;;;;;;0.10;0.10;;;12.60;99.90;11.70;98285.00;;;;5052011;28;20754;-77
2022/10/27 08:55:00;;;;;;;0.00;0.00;;;12.60;99.90;11.80;98282.00;;;;5051403;28;20213;-76
2022/10/27 08:57:32;;;;;;;0.00;0.00;;;12.60;99.90;11.80;98231.00;;;;5043784;28;20608;-76
2022/10/27 09:00:13;;;;;;;0.10;0.10;;;12.70;99.90;11.90;98273.00;;;;5050473;28;20217;-76
2022/10/27 09:03:05;;;;;;;0.00;0.00;;;12.80;99.90;12.00;98269.00;;;;5038436;28;20202;-76
2022/10/27 09:05:59;;;;;;;0.10;0.10;;;12.80;99.90;12.10;98267.00;;;;5039696;28;20190;-75
2022/10/27 09:08:40;;;;;;;0.10;0.10;;;12.90;99.90;12.10;98269.00;;;;5050788;28;20256;-76
2022/10/27 09:11:24;;;;;;;0.00;0.00;;;13.00;99.90;12.20;98270.00;;;;5051039;28;20292;-76
2022/10/27 09:14:13;;;;;;;0.10;0.10;;;13.10;99.90;12.30;98261.00;;;;5051557;28;20248;-76
2022/10/27 09:16:49;;;;;;;0.10;0.10;;;13.20;99.90;12.40;98255.00;;;;5051219;28;20269;-76
2022/10/27 09:19:27;;;;;;;0.10;0.10;;;13.30;99.90;12.40;98272.00;;;;5049591;28;20228;-77
2022/10/27 09:21:57;;;;;;;0.10;0.10;;;13.40;99.90;12.70;98272.00;;;;5051728;28;20665;-75
2022/10/27 09:24:30;;;;;;;0.00;0.00;;;13.50;99.90;12.80;98268.00;;;;5027834;28;20400;-76
2022/10/27 09:27:02;;;;;;;0.10;0.10;;;13.60;99.90;12.80;98268.00;;;;5052018;28;20594;-76
2022/10/27 09:29:36;;;;;;;0.00;0.00;;;13.70;99.90;12.90;98270.00;;;;5033011;28;20232;-78
2022/10/27 09:32:16;;;;;;;0.00;0.00;;;13.80;99.90;13.00;98269.00;;;;5050879;28;20245;-77
2022/10/27 09:34:51;;;;;;;0.00;0.00;;;13.80;99.90;13.10;98260.00;;;;5050474;28;20198;-76
2022/10/27 09:37:21;;;;;;;0.10;0.10;;;13.90;99.90;13.10;98263.00;;;;5050702;28;20194;-76
2022/10/27 09:39:51;;;;;;;0.00;0.00;;;13.90;99.90;13.10;98250.00;;;;5050309;28;20229;-76
2022/10/27 09:42:21;;;;;;;0.00;0.00;;;14.00;99.90;13.20;98269.00;;;;5050936;28;20198;-75
2022/10/27 09:44:55;;;;;;;0.00;0.00;;;14.00;99.90;13.30;98266.00;;;;5048548;28;20207;-76
2022/10/27 09:47:30;;;;;;;0.00;0.00;;;14.00;99.90;13.30;98275.00;;;;5049816;28;20252;-76
2022/10/27 09:50:01;;;;;;;0.10;0.10;;;14.10;99.90;13.40;98273.00;;;;5050984;28;20221;-76
2022/10/27 09:52:34;;;;;;;0.00;0.00;;;14.20;99.90;13.50;98272.00;;;;5050542;28;20222;-76
2022/10/27 09:55:03;;;;;;;0.10;0.10;;;14.30;99.90;13.50;98261.00;;;;5050465;28;20194;-79
2022/10/27 09:57:36;;;;;;;0.00;0.00;;;14.30;99.90;13.60;98272.00;;;;5050296;28;20202;-77
2022/10/27 10:00:08;;;;;;;0.00;0.00;;;14.40;99.90;13.70;98268.00;;;;5050785;28;20248;-76
2022/10/27 10:02:58;;;;;;;0.00;0.00;;;14.50;99.90;13.80;98271.00;;;;5049429;28;20209;-76
2022/10/27 10:05:30;;;;;;;0.00;0.00;;;14.60;99.90;13.90;98251.00;;;;5049972;28;20199;-76
2022/10/27 10:08:22;;;;;;;0.00;0.00;;;14.70;99.90;14.00;98264.00;;;;5049646;28;20617;-76
2022/10/27 10:10:57;;;;;;;0.00;0.00;;;14.80;99.90;14.10;98254.00;;;;5050487;28;20264;-76
2022/10/27 10:13:26;;;;;;;0.00;0.00;;;14.90;99.90;14.20;98240.00;;;;5052983;28;20882;-77
2022/10/27 10:16:09;;;;;;;0.08;0.08;;;15.00;99.90;14.30;98245.00;;;;5053930;28;20746;-76
2022/10/27 10:18:41;;;;;;;0.00;0.00;;;15.00;99.90;14.40;98245.00;;;;5051634;28;20289;-78
2022/10/27 10:21:13;;;;;;;0.10;0.10;;;15.20;99.90;14.50;98241.00;;;;5053241;28;20297;-75
2022/10/27 10:23:52;;;;;;;0.00;0.00;;;15.30;99.90;14.60;98255.00;;;;5036326;28;20194;-79
2022/10/27 10:26:23;;;;;;;0.00;0.00;;;15.40;99.90;14.70;98257.00;;;;5035331;28;20702;-76
2022/10/27 10:28:55;;;;;;;0.00;0.00;;;15.50;99.90;14.80;98252.00;;;;5054153;28;20245;-79
2022/10/27 10:31:29;;;;;;;0.00;0.00;;;15.60;99.90;14.90;98246.00;;;;5054367;28;20217;-76
2022/10/27 10:34:05;;;;;;;0.00;0.00;;;15.70;99.90;15.10;98256.00;;;;5055009;28;20570;-76
2022/10/27 10:36:37;;;;;;;0.00;0.00;;;15.80;99.90;15.10;98243.00;;;;5055392;28;20202;-76
2022/10/27 10:39:25;;;;;;;0.00;0.00;;;15.90;99.90;15.30;98239.00;;;;5052876;28;20233;-76
2022/10/27 10:42:17;;;;;;;0.00;0.00;;;16.00;99.90;15.30;98256.00;;;;5053718;28;20198;-76
2022/10/27 10:44:46;;;;;;;0.00;0.00;;;16.10;99.90;15.40;98252.00;;;;5048673;28;20229;-76
2022/10/27 10:47:26;;;;;;;0.00;0.00;;;16.20;99.90;15.50;98250.00;;;;5052457;28;20265;-80
2022/10/27 10:50:01;;;;;;;0.00;0.00;;;16.30;99.90;15.60;98249.00;;;;5055070;28;20216;-77
2022/10/27 10:52:37;;;;;;;0.00;0.00;;;16.30;99.90;15.70;98255.00;;;;5056256;28;20229;-76
2022/10/27 10:55:08;;;;;;;0.00;0.00;;;16.50;99.90;15.90;98247.00;;;;5052054;28;20198;-76
2022/10/27 10:57:41;;;;;;;0.00;0.00;;;16.70;99.90;16.00;98242.00;;;;5053546;28;20202;-77
2022/10/27 11:00:18;;;;;;;0.00;0.00;;;16.70;99.90;16.10;98247.00;;;;5054753;28;20719;-76
2022/10/27 11:02:54;;;;;;;0.00;0.00;;;16.80;99.90;16.10;98243.00;;;;5036862;28;20186;-76
2022/10/27 11:05:31;;;;;;;0.00;0.00;;;16.90;99.90;16.20;98245.00;;;;5054338;28;20200;-76
2022/10/27 11:08:01;;;;;;;0.00;0.00;;;16.90;99.90;16.30;98246.00;;;;5056498;28;20538;-78
2022/10/27 11:10:34;;;;;;;0.00;0.00;;;17.00;99.90;16.40;98255.00;;;;5055003;28;20222;-79
2022/10/27 11:13:07;;;;;;;0.00;0.00;;;17.10;99.90;16.50;98237.00;;;;5053548;28;20255;-76
2022/10/27 11:15:44;;;;;;;0.00;0.00;;;17.20;99.90;16.70;98238.00;;;;5054034;28;20210;-76
2022/10/27 11:18:17;;;;;;;0.00;0.00;;;17.40;99.90;16.90;98223.00;;;;5053797;28;20268;-76
2022/10/27 11:20:52;;;;;;;0.00;0.00;;;17.60;99.90;17.10;98235.00;;;;5051296;28;20274;-78
2022/10/27 11:23:28;;;;;;;0.00;0.00;;;17.80;99.90;17.30;98230.00;;;;5052007;28;20217;-77
2022/10/27 11:25:58;;;;;;;0.00;0.00;;;17.90;99.90;17.40;98227.00;;;;5052741;28;20281;-76